Schaeferville, Illinois
Current Conditions -  °F | °C
As of 6:54 PM on Thursday 27 Nov 2014 (Local Time) from KPIA Reporting Station
Clear Clear  
Wind Chill:   Ceiling: Unl
Heat Index: 15°   Visibility: 10mi
Dew Point:   Wind: 6mph
Humidity: 70%   Direction: 290°WNW
Pressure: 30.46"   Gusts: NA
Location:  40.5452°N, 89.6011°W
Report Text: KPIA 280054Z 29005KT 10SM CLR M09/M14 A3046 RMK AO2 SLP325 T10941139
Loading
Personal Weather Stations






























Interactive Weather Map New forecast layout! Learn more

10-Day Weather Forecast

Advertisements
Track Severe Weather on mobile